Estatísticas do Tribal Wars: Mundo 5: Tribe

Perfil da Tribo Tribalwars: Click Restart (conquistas)

Tipo Tribo anterior Nova Tribo Pontos Mínimos/Máximos Intervalo de datas  
/

>1< [2] [3] [4] [5] [6] [7] [8] [9] [10] ... [6457] [todos/todas] 129,127
  Aldeia Pontos Proprietário anterior Novo proprietário Data/Tempo
57:A2:51:38 (753|518) K57 9,332 Bárbaro: Octávio Dionísio [Reset] 2012-06-07 00:00:06
3966KRUS-RESET (931|777) K79 10,472 Girassos [*FUN*] krus [Reset] 2012-06-06 23:51:50
Aldeia de bárbaros (155|890) K81 10,367 Bárbaro: fersal [Reset] 2012-06-06 23:51:35
Aldeia de bárbaros (582|971) K95 9,416 Bárbaro: Duncan Ferguson [Reset] 2012-06-06 23:50:57
=4098= EL NeroKido (687|151) K16 9,363 Bárbaro: EL NeroKido [Reset] 2012-06-06 23:49:58
K17 [IGOR] Aldeia de bárbaros (798|103) K17 6,381 Bárbaro: IGOR F.C.P. [Reset] 2012-06-06 23:16:41
BY YOUR SIDE FOREVER (424|977) K94 10,464 Bárbaro: cortiço ventoinha [Reset] 2012-06-06 23:09:44
=4100= EL NeroKido (686|150) K16 9,749 Bárbaro: EL NeroKido [Reset] 2012-06-06 23:02:01
Aldeia de bárbaros (512|997) K95 8,081 Bárbaro: Duncan Ferguson [Reset] 2012-06-06 22:46:47
Moby.pos reset (52|263) K20 9,685 MobyDick [Reset] MobyDick [Reset] 2012-06-06 22:43:12
K18 [IGOR] Aldeia de bárbaros (805|102) K18 6,455 Bárbaro: IGOR F.C.P. [Reset] 2012-06-06 22:41:50
Aldeia de bárbaros (174|887) K81 12,123 Bárbaro: fersal [Reset] 2012-06-06 22:18:18
Ónix 17 (730|137) K17 12,123 Deusavenus [ABD] Dj Ónix [Reset] 2012-06-06 22:04:27
Aldeia de bárbaros (551|838) K85 9,583 Bárbaro: Duncan Ferguson [Reset] 2012-06-06 22:04:00
Aldeia de bárbaros (643|778) K76 9,324 Bárbaro: Duncan Ferguson [Reset] 2012-06-06 22:03:23
3965KRUS-RESET (724|173) K17 12,173 Bárbaro: krus [Reset] 2012-06-06 22:02:03
3964KRUS-RESET (725|167) K17 9,646 Bárbaro: krus [Reset] 2012-06-06 22:00:08
Aldeia de bárbaros (89|844) K80 10,464 Bárbaro: KEMPES35 [Reset] 2012-06-06 21:59:36
BY YOUR SIDE FOREVER (424|963) K94 9,437 Bárbaro: cortiço ventoinha [Reset] 2012-06-06 21:56:10
3963KRUS-RESET (728|160) K17 9,646 Bárbaro: krus [Reset] 2012-06-06 21:50:36
>1< [2] [3] [4] [5] [6] [7] [8] [9] [10] ... [6457] [todos/todas] 129,127

2020-04-08 16:12:30 BST